createdAt,value
2022-09-16T00:03:48.806Z,72.88
2022-09-16T00:12:12.067Z,72.61
2022-09-16T00:20:35.627Z,72.80
2022-09-16T00:29:01.373Z,72.65
2022-09-16T00:37:25.019Z,72.60
2022-09-16T00:45:55.786Z,72.56
2022-09-16T00:54:20.581Z,72.62
2022-09-16T01:02:45.437Z,72.70
2022-09-16T01:11:08.352Z,72.68
2022-09-16T01:20:08.644Z,72.64
2022-09-16T01:28:34.516Z,72.70
2022-09-16T01:37:12.696Z,72.74
2022-09-16T01:46:03.590Z,72.95
2022-09-16T01:54:43.290Z,72.93
2022-09-16T02:03:11.903Z,72.79
2022-09-16T02:11:37.651Z,72.74
2022-09-16T02:20:06.823Z,72.72
2022-09-16T02:28:34.702Z,72.86
2022-09-16T02:37:04.741Z,72.92
2022-09-16T02:45:44.791Z,73.01
2022-09-16T02:54:30.919Z,72.79
2022-09-16T03:02:54.441Z,72.81
2022-09-16T03:11:25.794Z,72.97
2022-09-16T03:20:12.136Z,73.02
2022-09-16T03:28:59.041Z,73.02
2022-09-16T03:37:25.217Z,72.89
2022-09-16T03:45:48.084Z,73.15
2022-09-16T03:54:10.950Z,73.33
2022-09-16T04:02:33.881Z,73.11
2022-09-16T04:11:02.556Z,73.08
2022-09-16T04:19:25.667Z,73.15
2022-09-16T04:27:48.518Z,73.34
2022-09-16T04:36:14.876Z,73.45
2022-09-16T04:44:37.710Z,73.41
2022-09-16T04:53:00.552Z,73.48
2022-09-16T05:01:25.888Z,73.59
2022-09-16T05:09:48.978Z,73.53
2022-09-16T05:18:11.812Z,73.57
2022-09-16T05:26:36.327Z,73.87
2022-09-16T05:34:59.057Z,73.69
2022-09-16T05:43:21.925Z,73.87
2022-09-16T05:51:45.281Z,74.20
2022-09-16T06:00:09.378Z,74.67
2022-09-16T06:08:34.873Z,74.65
2022-09-16T06:16:57.647Z,74.64
2022-09-16T06:25:20.741Z,74.67
2022-09-16T06:33:44.037Z,74.78
2022-09-16T06:42:09.731Z,74.44
2022-09-16T06:50:36.374Z,74.45
2022-09-16T06:58:59.198Z,74.52
2022-09-16T07:07:22.105Z,74.33
2022-09-16T07:16:09.156Z,74.42
2022-09-16T07:24:27.807Z,74.41
2022-09-16T07:32:50.587Z,74.63
2022-09-16T07:41:16.438Z,74.36
2022-09-16T07:49:39.238Z,74.58
2022-09-16T07:58:02.204Z,74.55
2022-09-16T08:06:29.349Z,74.51
2022-09-16T08:14:52.088Z,74.47
2022-09-16T08:23:15.057Z,74.35
2022-09-16T08:31:38.865Z,74.45
2022-09-16T08:40:03.928Z,74.59
2022-09-16T08:48:39.989Z,74.46
2022-09-16T08:57:06.352Z,74.37
2022-09-16T09:05:43.638Z,74.24
2022-09-16T09:14:23.211Z,74.25
2022-09-16T09:23:08.151Z,74.16
2022-09-16T09:31:50.214Z,74.30
2022-09-16T09:40:16.186Z,74.18
2022-09-16T09:48:44.902Z,74.37
2022-09-16T09:57:38.273Z,74.50
2022-09-16T10:06:01.067Z,74.47
2022-09-16T10:14:26.559Z,74.27
2022-09-16T10:23:01.202Z,74.01
2022-09-16T10:31:29.240Z,74.20
2022-09-16T10:39:58.765Z,73.95
2022-09-16T10:48:28.435Z,74.03
2022-09-16T10:56:52.345Z,74.01
2022-09-16T11:05:41.616Z,73.76
2022-09-16T11:14:20.610Z,73.84
2022-09-16T11:22:54.116Z,73.91
2022-09-16T11:31:40.987Z,73.81
2022-09-16T11:40:29.189Z,73.72
2022-09-16T11:49:29.870Z,73.83
2022-09-16T11:57:58.944Z,73.73
2022-09-16T12:06:27.014Z,73.81
2022-09-16T12:15:05.466Z,73.76
2022-09-16T12:23:32.167Z,73.68
2022-09-16T12:32:11.654Z,73.56
2022-09-16T12:41:22.312Z,73.49
2022-09-16T12:50:20.439Z,73.67
2022-09-16T12:59:07.031Z,73.57
2022-09-16T13:07:35.848Z,73.26
2022-09-16T13:16:02.264Z,73.23
2022-09-16T13:24:28.044Z,73.22
2022-09-16T13:32:50.793Z,73.17
2022-09-16T13:41:14.687Z,73.20
2022-09-16T13:49:58.429Z,72.84
2022-09-16T13:58:36.317Z,72.69
2022-09-16T14:07:19.796Z,72.82
2022-09-16T14:15:50.654Z,72.94
2022-09-16T14:24:19.138Z,72.91
2022-09-16T14:32:42.289Z,72.58
2022-09-16T14:41:09.897Z,72.79
2022-09-16T14:49:36.597Z,72.52
2022-09-16T14:58:00.396Z,72.59
2022-09-16T15:06:27.330Z,72.20
2022-09-16T15:14:50.770Z,72.28
2022-09-16T15:23:23.140Z,72.29
2022-09-16T15:31:47.198Z,72.25
2022-09-16T15:40:11.433Z,72.01
2022-09-16T15:48:43.056Z,72.00
2022-09-16T15:57:15.908Z,71.93
2022-09-16T16:05:51.863Z,71.96
2022-09-16T16:14:14.614Z,71.86
2022-09-16T16:22:39.457Z,71.63
2022-09-16T16:31:17.245Z,71.60
2022-09-16T16:39:41.072Z,71.59
2022-09-16T16:48:07.539Z,71.41
2022-09-16T16:56:30.397Z,71.11
2022-09-16T17:04:53.326Z,71.47
2022-09-16T17:13:16.169Z,71.38
2022-09-16T17:21:40.265Z,71.34
2022-09-16T17:30:03.276Z,71.00
2022-09-16T17:38:26.293Z,70.84
2022-09-16T17:46:49.138Z,70.82
2022-09-16T17:55:13.201Z,70.87
2022-09-16T18:03:39.342Z,70.81
2022-09-16T18:12:03.618Z,70.64
2022-09-16T18:20:26.647Z,70.62
2022-09-16T18:29:10.973Z,70.74
2022-09-16T18:37:36.065Z,70.36
2022-09-16T18:46:16.421Z,70.40
2022-09-16T18:54:39.356Z,70.61
2022-09-16T19:03:02.214Z,70.40
2022-09-16T19:11:25.386Z,70.40
2022-09-16T19:19:50.866Z,70.55
2022-09-16T19:28:13.685Z,70.43
2022-09-16T19:36:38.419Z,70.28
2022-09-16T19:45:01.292Z,70.15
2022-09-16T19:53:24.356Z,70.18
2022-09-16T20:01:48.543Z,70.25
2022-09-16T20:10:11.346Z,70.16
2022-09-16T20:18:35.623Z,70.26
2022-09-16T20:26:58.429Z,70.33
2022-09-16T20:35:21.194Z,70.41
2022-09-16T20:43:46.458Z,70.32
2022-09-16T20:52:09.363Z,70.45
2022-09-16T21:00:34.774Z,70.36
2022-09-16T21:09:00.839Z,70.58
2022-09-16T21:17:23.922Z,70.35
2022-09-16T21:25:49.020Z,70.30
2022-09-16T21:34:21.179Z,70.49
2022-09-16T21:42:45.315Z,70.47
2022-09-16T21:51:15.701Z,70.34
2022-09-16T21:59:38.532Z,70.24
2022-09-16T22:08:03.411Z,70.13
2022-09-16T22:16:29.596Z,70.29
2022-09-16T22:24:52.377Z,70.34
2022-09-16T22:33:15.194Z,70.20
2022-09-16T22:41:37.992Z,70.25
2022-09-16T22:50:00.810Z,70.19
2022-09-16T22:58:25.558Z,70.14
2022-09-16T23:06:48.314Z,70.28
2022-09-16T23:15:12.926Z,70.19
2022-09-16T23:23:41.431Z,70.53
2022-09-16T23:32:04.542Z,70.10
2022-09-16T23:40:28.853Z,70.40
2022-09-16T23:48:54.815Z,70.42
2022-09-16T23:57:17.753Z,70.39
